PWSweather.com
Personal Weather Stations
Station Observations
KCOGRAND2
Redlands, Southcamp Road & Dakota Circle, Grand Junction, CO 81507

Redlands, Southcamp Road & Dakota CircleGrand Junction, CO 81507

Lat: 39.055, Lon: -108.637

Elevation: 4870

Station Type: RadioShack WX200

Latest ConditionsUpdated 8:06:40 AM MDT Friday, Apr 29, 2016
Currently Today's Max Today's Min Today's Average
Temperature 41.7°F5.4°C 46.8°F8.2°C 37.9°F3.3°C 41.2°F5.1°C
Dew Point 38.1°F3.4°C 38.8°F3.8°C 33.8°F1.0°C 36.1°F2.3°C
Winds 1.0 mph SE1.6 kmh SE 4.0 mph NNE6.4 kmh NNE - 1.6 mph 2.6 kmh
Wind Gusts 4.0 mph6.4 kmh 6.7 mph10.8 kmh - -
Humidity 87% 90% 63% 82%
Pressure 24.89 in842.9 mb 24.89 in842.9 mb 24.83 in840.8 mb -
Hour Temp Dew Point Humidity Winds Wind Gusts Pressure Precip Precip Rate Daily Precip Total
08:06 AM 41.7°F5.4°C 38.1°F3.4°C 87% 1.0 mph SE1.6 kmh SE 4.0 mph6.4 kmh 24.89 in842.9 mb 0.00 in0.0 mm 0.00 in0.0 mm 0.00 in0.0 mm
08:01 AM 41.5°F5.3°C 37.9°F3.3°C 87% 2.0 mph SE3.2 kmh SE 3.6 mph5.8 kmh 24.89 in842.9 mb 0.00 in0.0 mm 0.00 in0.0 mm 0.00 in0.0 mm
07:56 AM 41.7°F5.4°C 38.5°F3.6°C 88% 3.0 mph SSE4.8 kmh SSE 4.0 mph6.4 kmh 24.89 in842.9 mb 0.00 in0.0 mm 0.00 in0.0 mm 0.00 in0.0 mm
07:51 AM 42.1°F5.6°C 38.8°F3.8°C 88% 4.0 mph SW6.4 kmh SW 6.3 mph10.1 kmh 24.89 in842.9 mb 0.00 in0.0 mm 0.00 in0.0 mm 0.00 in0.0 mm
07:46 AM 41.4°F5.2°C 38.1°F3.4°C 88% 4.0 mph W6.4 kmh W 5.8 mph9.3 kmh 24.89 in842.9 mb 0.00 in0.0 mm 0.00 in0.0 mm 0.00 in0.0 mm
07:41 AM 41.0°F5.0°C 37.8°F3.2°C 88% 3.0 mph W4.8 kmh W 4.5 mph7.2 kmh 24.89 in842.9 mb 0.00 in0.0 mm 0.00 in0.0 mm 0.00 in0.0 mm
07:36 AM 40.8°F4.9°C 37.6°F3.1°C 88% 2.0 mph W3.2 kmh W 4.5 mph7.2 kmh 24.89 in842.9 mb 0.00 in0.0 mm 0.00 in0.0 mm 0.00 in0.0 mm
07:31 AM 40.6°F4.8°C 37.0°F2.8°C 87% 1.0 mph W1.6 kmh W 3.1 mph5.0 kmh 24.89 in842.9 mb 0.00 in0.0 mm 0.00 in0.0 mm 0.00 in0.0 mm
07:26 AM 40.5°F4.7°C 36.9°F2.7°C 87% Calm Calm 3.1 mph5.0 kmh 24.89 in842.9 mb 0.00 in0.0 mm 0.00 in0.0 mm 0.00 in0.0 mm
07:21 AM 40.3°F4.6°C 36.7°F2.6°C 87% 2.0 mph W3.2 kmh W 3.1 mph5.0 kmh 24.86 in841.9 mb 0.00 in0.0 mm 0.00 in0.0 mm 0.00 in0.0 mm
07:16 AM 40.3°F4.6°C 37.0°F2.8°C 88% 4.0 mph WNW6.4 kmh WNW 5.4 mph8.7 kmh 24.86 in841.9 mb 0.00 in0.0 mm 0.00 in0.0 mm 0.00 in0.0 mm
07:11 AM 39.9°F4.4°C 36.9°F2.7°C 89% 4.0 mph N6.4 kmh N 6.7 mph10.8 kmh 24.86 in841.9 mb 0.00 in0.0 mm 0.00 in0.0 mm 0.00 in0.0 mm
07:06 AM 39.4°F4.1°C 36.7°F2.6°C 90% 3.0 mph N4.8 kmh N 4.5 mph7.2 kmh 24.86 in841.9 mb 0.00 in0.0 mm 0.00 in0.0 mm 0.00 in0.0 mm
07:01 AM 38.5°F3.6°C 35.8°F2.1°C 90% 1.0 mph N1.6 kmh N 3.6 mph5.8 kmh 24.86 in841.9 mb 0.00 in0.0 mm 0.00 in0.0 mm 0.00 in0.0 mm
06:56 AM 38.5°F3.6°C 35.8°F2.1°C 90% Calm Calm 4.0 mph6.4 kmh 24.86 in841.9 mb 0.00 in0.0 mm 0.00 in0.0 mm 0.00 in0.0 mm
06:51 AM 38.7°F3.7°C 36.0°F2.2°C 90% Calm Calm 2.7 mph4.3 kmh 24.86 in841.9 mb 0.00 in0.0 mm 0.00 in0.0 mm 0.00 in0.0 mm
06:46 AM 38.8°F3.8°C 36.1°F2.3°C 90% Calm Calm 3.1 mph5.0 kmh 24.86 in841.9 mb 0.00 in0.0 mm 0.00 in0.0 mm 0.00 in0.0 mm
06:41 AM 38.7°F3.7°C 36.0°F2.2°C 90% Calm Calm 2.7 mph4.3 kmh 24.86 in841.9 mb 0.00 in0.0 mm 0.00 in0.0 mm 0.00 in0.0 mm
06:36 AM 38.1°F3.4°C 35.4°F1.9°C 90% Calm Calm -- 24.86 in841.9 mb 0.00 in0.0 mm 0.00 in0.0 mm 0.00 in0.0 mm
06:31 AM 37.9°F3.3°C 35.2°F1.8°C 90% Calm Calm 3.1 mph5.0 kmh 24.86 in841.9 mb 0.00 in0.0 mm 0.00 in0.0 mm 0.00 in0.0 mm
06:26 AM 38.3°F3.5°C 35.6°F2.0°C 90% Calm Calm 2.7 mph4.3 kmh 24.86 in841.9 mb 0.00 in0.0 mm 0.00 in0.0 mm 0.00 in0.0 mm
06:21 AM 38.7°F3.7°C 36.0°F2.2°C 90% Calm Calm -- 24.86 in841.9 mb 0.00 in0.0 mm 0.00 in0.0 mm 0.00 in0.0 mm
06:16 AM 38.5°F3.6°C 35.6°F2.0°C 89% 2.0 mph N3.2 kmh N 4.5 mph7.2 kmh 24.86 in841.9 mb 0.00 in0.0 mm 0.00 in0.0 mm 0.00 in0.0 mm
06:11 AM 38.5°F3.6°C 35.6°F2.0°C 89% 2.0 mph N3.2 kmh N 4.0 mph6.4 kmh 24.86 in841.9 mb 0.00 in0.0 mm 0.00 in0.0 mm 0.00 in0.0 mm
06:06 AM 38.5°F3.6°C 35.8°F2.1°C 90% 3.0 mph N4.8 kmh N 4.0 mph6.4 kmh 24.86 in841.9 mb 0.00 in0.0 mm 0.00 in0.0 mm 0.00 in0.0 mm
06:01 AM 38.5°F3.6°C 35.8°F2.1°C 90% 1.0 mph N1.6 kmh N 4.0 mph6.4 kmh 24.86 in841.9 mb 0.00 in0.0 mm 0.00 in0.0 mm 0.00 in0.0 mm
05:56 AM 38.8°F3.8°C 36.1°F2.3°C 90% 1.0 mph N1.6 kmh N 2.7 mph4.3 kmh 24.86 in841.9 mb 0.00 in0.0 mm 0.00 in0.0 mm 0.00 in0.0 mm
05:51 AM 38.8°F3.8°C 36.1°F2.3°C 90% 1.0 mph N1.6 kmh N 3.6 mph5.8 kmh 24.86 in841.9 mb 0.00 in0.0 mm 0.00 in0.0 mm 0.00 in0.0 mm
05:46 AM 38.1°F3.4°C 35.4°F1.9°C 90% Calm Calm 2.7 mph4.3 kmh 24.86 in841.9 mb 0.00 in0.0 mm 0.00 in0.0 mm 0.00 in0.0 mm
05:41 AM 37.9°F3.3°C 35.2°F1.8°C 90% Calm Calm -- 24.86 in841.9 mb 0.00 in0.0 mm 0.00 in0.0 mm 0.00 in0.0 mm
05:36 AM 37.9°F3.3°C 35.2°F1.8°C 90% Calm Calm -- 24.86 in841.9 mb 0.00 in0.0 mm 0.00 in0.0 mm 0.00 in0.0 mm
05:31 AM 38.1°F3.4°C 35.4°F1.9°C 90% Calm Calm -- 24.86 in841.9 mb 0.00 in0.0 mm 0.00 in0.0 mm 0.00 in0.0 mm
05:26 AM 38.3°F3.5°C 35.6°F2.0°C 90% Calm Calm -- 24.86 in841.9 mb 0.00 in0.0 mm 0.00 in0.0 mm 0.00 in0.0 mm
05:21 AM 38.5°F3.6°C 35.6°F2.0°C 89% Calm Calm -- 24.86 in841.9 mb 0.00 in0.0 mm 0.00 in0.0 mm 0.00 in0.0 mm
05:16 AM 38.5°F3.6°C 35.6°F2.0°C 89% Calm Calm -- 24.86 in841.9 mb 0.00 in0.0 mm 0.00 in0.0 mm 0.00 in0.0 mm
05:11 AM 38.8°F3.8°C 36.1°F2.3°C 90% 1.0 mph N1.6 kmh N 4.0 mph6.4 kmh 24.86 in841.9 mb 0.00 in0.0 mm 0.00 in0.0 mm 0.00 in0.0 mm
05:06 AM 39.2°F4.0°C 36.5°F2.5°C 90% 1.0 mph NW1.6 kmh NW 4.9 mph7.9 kmh 24.86 in841.9 mb 0.00 in0.0 mm 0.00 in0.0 mm 0.00 in0.0 mm
05:01 AM 39.0°F3.9°C 36.3°F2.4°C 90% 2.0 mph NW3.2 kmh NW 4.5 mph7.2 kmh 24.86 in841.9 mb 0.00 in0.0 mm 0.00 in0.0 mm 0.00 in0.0 mm
04:56 AM 39.2°F4.0°C 36.5°F2.5°C 90% 3.0 mph NW4.8 kmh NW 4.5 mph7.2 kmh 24.86 in841.9 mb 0.00 in0.0 mm 0.00 in0.0 mm 0.00 in0.0 mm
04:51 AM 38.8°F3.8°C 36.0°F2.2°C 89% 2.0 mph NW3.2 kmh NW 4.0 mph6.4 kmh 24.86 in841.9 mb 0.00 in0.0 mm 0.00 in0.0 mm 0.00 in0.0 mm
04:46 AM 38.8°F3.8°C 36.0°F2.2°C 89% 3.0 mph NW4.8 kmh NW 4.0 mph6.4 kmh 24.86 in841.9 mb 0.00 in0.0 mm 0.00 in0.0 mm 0.00 in0.0 mm
04:41 AM 39.2°F4.0°C 36.3°F2.4°C 89% 3.0 mph NW4.8 kmh NW 5.4 mph8.7 kmh 24.86 in841.9 mb 0.00 in0.0 mm 0.00 in0.0 mm 0.00 in0.0 mm
04:36 AM 39.4°F4.1°C 35.8°F2.1°C 87% 3.0 mph NW4.8 kmh NW 4.9 mph7.9 kmh 24.86 in841.9 mb 0.00 in0.0 mm 0.00 in0.0 mm 0.00 in0.0 mm
04:31 AM 39.4°F4.1°C 35.6°F2.0°C 86% 4.0 mph NW6.4 kmh NW 4.5 mph7.2 kmh 24.86 in841.9 mb 0.00 in0.0 mm 0.00 in0.0 mm 0.00 in0.0 mm
04:26 AM 38.8°F3.8°C 35.1°F1.7°C 86% 3.0 mph NW4.8 kmh NW 4.9 mph7.9 kmh 24.86 in841.9 mb 0.00 in0.0 mm 0.00 in0.0 mm 0.00 in0.0 mm
04:21 AM 38.7°F3.7°C 34.9°F1.6°C 86% 1.0 mph NW1.6 kmh NW 4.0 mph6.4 kmh 24.86 in841.9 mb 0.00 in0.0 mm 0.00 in0.0 mm 0.00 in0.0 mm
04:16 AM 39.2°F4.0°C 35.6°F2.0°C 87% 1.0 mph NW1.6 kmh NW 3.1 mph5.0 kmh 24.86 in841.9 mb 0.00 in0.0 mm 0.00 in0.0 mm 0.00 in0.0 mm
04:11 AM 39.6°F4.2°C 35.8°F2.1°C 86% 3.0 mph NW4.8 kmh NW 4.5 mph7.2 kmh 24.86 in841.9 mb 0.00 in0.0 mm 0.00 in0.0 mm 0.00 in0.0 mm
04:06 AM 39.4°F4.1°C 35.6°F2.0°C 86% 1.0 mph NW1.6 kmh NW 4.9 mph7.9 kmh 24.86 in841.9 mb 0.00 in0.0 mm 0.00 in0.0 mm 0.00 in0.0 mm
04:01 AM 39.7°F4.3°C 36.1°F2.3°C 87% Calm Calm -- 24.86 in841.9 mb 0.00 in0.0 mm 0.00 in0.0 mm 0.00 in0.0 mm
03:56 AM 39.7°F4.3°C 36.0°F2.2°C 86% Calm Calm 2.7 mph4.3 kmh 24.86 in841.9 mb 0.00 in0.0 mm 0.00 in0.0 mm 0.00 in0.0 mm
03:51 AM 39.9°F4.4°C 36.1°F2.3°C 86% Calm Calm -- 24.86 in841.9 mb 0.00 in0.0 mm 0.00 in0.0 mm 0.00 in0.0 mm
03:46 AM 40.3°F4.6°C 36.5°F2.5°C 86% 2.0 mph NW3.2 kmh NW 3.6 mph5.8 kmh 24.86 in841.9 mb 0.00 in0.0 mm 0.00 in0.0 mm 0.00 in0.0 mm
03:41 AM 40.6°F4.8°C 36.5°F2.5°C 85% 1.0 mph NW1.6 kmh NW 3.6 mph5.8 kmh 24.86 in841.9 mb 0.00 in0.0 mm 0.00 in0.0 mm 0.00 in0.0 mm
03:36 AM 40.6°F4.8°C 36.5°F2.5°C 85% 2.0 mph NW3.2 kmh NW 3.1 mph5.0 kmh 24.86 in841.9 mb 0.00 in0.0 mm 0.00 in0.0 mm 0.00 in0.0 mm
03:31 AM 41.0°F5.0°C 36.9°F2.7°C 85% 2.0 mph NW3.2 kmh NW 4.0 mph6.4 kmh 24.86 in841.9 mb 0.00 in0.0 mm 0.00 in0.0 mm 0.00 in0.0 mm
03:26 AM 41.2°F5.1°C 37.4°F3.0°C 86% 3.0 mph NW4.8 kmh NW 5.4 mph8.7 kmh 24.86 in841.9 mb 0.00 in0.0 mm 0.00 in0.0 mm 0.00 in0.0 mm
03:21 AM 41.2°F5.1°C 37.4°F3.0°C 86% 3.0 mph NW4.8 kmh NW 4.9 mph7.9 kmh 24.86 in841.9 mb 0.00 in0.0 mm 0.00 in0.0 mm 0.00 in0.0 mm
03:16 AM 41.2°F5.1°C 37.0°F2.8°C 85% 3.0 mph NW4.8 kmh NW 4.0 mph6.4 kmh 24.86 in841.9 mb 0.00 in0.0 mm 0.00 in0.0 mm 0.00 in0.0 mm
03:11 AM 41.4°F5.2°C 36.9°F2.7°C 84% 3.0 mph NW4.8 kmh NW 4.0 mph6.4 kmh 24.86 in841.9 mb 0.00 in0.0 mm 0.00 in0.0 mm 0.00 in0.0 mm
03:06 AM 41.5°F5.3°C 36.7°F2.6°C 83% 2.0 mph NW3.2 kmh NW 4.5 mph7.2 kmh 24.86 in841.9 mb 0.00 in0.0 mm 0.00 in0.0 mm 0.00 in0.0 mm
03:01 AM 41.5°F5.3°C 36.7°F2.6°C 83% 1.0 mph NW1.6 kmh NW 3.6 mph5.8 kmh 24.86 in841.9 mb 0.00 in0.0 mm 0.00 in0.0 mm 0.00 in0.0 mm
02:56 AM 41.9°F5.5°C 36.9°F2.7°C 82% Calm Calm 2.7 mph4.3 kmh 24.86 in841.9 mb 0.00 in0.0 mm 0.00 in0.0 mm 0.00 in0.0 mm
02:51 AM 42.1°F5.6°C 36.7°F2.6°C 81% 1.0 mph NW1.6 kmh NW 3.6 mph5.8 kmh 24.86 in841.9 mb 0.00 in0.0 mm 0.00 in0.0 mm 0.00 in0.0 mm
02:46 AM 42.1°F5.6°C 36.7°F2.6°C 81% 1.0 mph NW1.6 kmh NW 4.0 mph6.4 kmh 24.86 in841.9 mb 0.00 in0.0 mm 0.00 in0.0 mm 0.00 in0.0 mm
02:41 AM 42.3°F5.7°C 36.9°F2.7°C 81% 2.0 mph NW3.2 kmh NW 3.6 mph5.8 kmh 24.86 in841.9 mb 0.00 in0.0 mm 0.00 in0.0 mm 0.00 in0.0 mm
02:36 AM 42.8°F6.0°C 37.4°F3.0°C 81% 3.0 mph NW4.8 kmh NW 3.6 mph5.8 kmh 24.86 in841.9 mb 0.00 in0.0 mm 0.00 in0.0 mm 0.00 in0.0 mm
02:31 AM 43.0°F6.1°C 37.9°F3.3°C 82% 4.0 mph NW6.4 kmh NW 5.8 mph9.3 kmh 24.86 in841.9 mb 0.00 in0.0 mm 0.00 in0.0 mm 0.00 in0.0 mm
02:26 AM 42.6°F5.9°C 37.8°F3.2°C 83% 3.0 mph NW4.8 kmh NW 6.7 mph10.8 kmh 24.86 in841.9 mb 0.00 in0.0 mm 0.00 in0.0 mm 0.00 in0.0 mm
02:21 AM 41.9°F5.5°C 36.9°F2.7°C 82% 1.0 mph NW1.6 kmh NW 4.0 mph6.4 kmh 24.86 in841.9 mb 0.00 in0.0 mm 0.00 in0.0 mm 0.00 in0.0 mm
02:16 AM 41.7°F5.4°C 36.3°F2.4°C 81% Calm Calm 2.7 mph4.3 kmh 24.86 in841.9 mb 0.00 in0.0 mm 0.00 in0.0 mm 0.00 in0.0 mm
02:11 AM 41.9°F5.5°C 36.5°F2.5°C 81% Calm Calm -- 24.86 in841.9 mb 0.00 in0.0 mm 0.00 in0.0 mm 0.00 in0.0 mm
02:06 AM 42.1°F5.6°C 36.3°F2.4°C 80% 2.0 mph NW3.2 kmh NW 3.1 mph5.0 kmh 24.86 in841.9 mb 0.00 in0.0 mm 0.00 in0.0 mm 0.00 in0.0 mm
02:01 AM 42.1°F5.6°C 36.0°F2.2°C 79% 2.0 mph NW3.2 kmh NW 4.5 mph7.2 kmh 24.86 in841.9 mb 0.00 in0.0 mm 0.00 in0.0 mm 0.00 in0.0 mm
01:56 AM 42.3°F5.7°C 36.0°F2.2°C 78% 3.0 mph NW4.8 kmh NW 3.1 mph5.0 kmh 24.86 in841.9 mb 0.00 in0.0 mm 0.00 in0.0 mm 0.00 in0.0 mm
01:51 AM 42.3°F5.7°C 35.6°F2.0°C 77% 3.0 mph NW4.8 kmh NW 5.4 mph8.7 kmh 24.86 in841.9 mb 0.00 in0.0 mm 0.00 in0.0 mm 0.00 in0.0 mm
01:46 AM 42.4°F5.8°C 35.1°F1.7°C 75% 3.0 mph NW4.8 kmh NW 4.5 mph7.2 kmh 24.86 in841.9 mb 0.00 in0.0 mm 0.00 in0.0 mm 0.00 in0.0 mm
01:41 AM 43.0°F6.1°C 35.2°F1.8°C 74% 2.0 mph NW3.2 kmh NW 4.5 mph7.2 kmh 24.86 in841.9 mb 0.00 in0.0 mm 0.00 in0.0 mm 0.00 in0.0 mm
01:36 AM 43.9°F6.6°C 35.8°F2.1°C 73% Calm Calm 4.0 mph6.4 kmh 24.86 in841.9 mb 0.00 in0.0 mm 0.00 in0.0 mm 0.00 in0.0 mm
01:31 AM 44.1°F6.7°C 35.6°F2.0°C 72% 1.0 mph NW1.6 kmh NW 2.7 mph4.3 kmh 24.86 in841.9 mb 0.00 in0.0 mm 0.00 in0.0 mm 0.00 in0.0 mm
01:26 AM 43.9°F6.6°C 35.1°F1.7°C 71% 1.0 mph NW1.6 kmh NW 4.0 mph6.4 kmh 24.86 in841.9 mb 0.00 in0.0 mm 0.00 in0.0 mm 0.00 in0.0 mm
01:21 AM 44.1°F6.7°C 35.2°F1.8°C 71% Calm Calm 3.1 mph5.0 kmh 24.83 in840.8 mb 0.00 in0.0 mm 0.00 in0.0 mm 0.00 in0.0 mm
01:16 AM 44.2°F6.8°C 35.1°F1.7°C 70% 2.0 mph NW3.2 kmh NW 5.4 mph8.7 kmh 24.83 in840.8 mb 0.00 in0.0 mm 0.00 in0.0 mm 0.00 in0.0 mm
01:11 AM 44.6°F7.0°C 35.1°F1.7°C 69% 2.0 mph NW3.2 kmh NW 4.9 mph7.9 kmh 24.83 in840.8 mb 0.00 in0.0 mm 0.00 in0.0 mm 0.00 in0.0 mm
01:06 AM 45.0°F7.2°C 34.7°F1.5°C 67% 1.0 mph NW1.6 kmh NW 3.6 mph5.8 kmh 24.86 in841.9 mb 0.00 in0.0 mm 0.00 in0.0 mm 0.00 in0.0 mm
01:01 AM 45.5°F7.5°C 35.6°F2.0°C 68% 3.0 mph NNW4.8 kmh NNW 6.3 mph10.1 kmh 24.86 in841.9 mb 0.00 in0.0 mm 0.00 in0.0 mm 0.00 in0.0 mm
12:56 AM 45.1°F7.3°C 35.6°F2.0°C 69% 2.0 mph N3.2 kmh N 6.7 mph10.8 kmh 24.86 in841.9 mb 0.00 in0.0 mm 0.00 in0.0 mm 0.00 in0.0 mm
12:51 AM 45.7°F7.6°C 35.1°F1.7°C 66% 1.0 mph NNE1.6 kmh NNE -- 24.83 in840.8 mb 0.00 in0.0 mm 0.00 in0.0 mm 0.00 in0.0 mm
12:46 AM 45.0°F7.2°C 34.7°F1.5°C 67% 2.0 mph NNE3.2 kmh NNE 4.0 mph6.4 kmh 24.83 in840.8 mb 0.00 in0.0 mm 0.00 in0.0 mm 0.00 in0.0 mm
12:41 AM 45.1°F7.3°C 34.9°F1.6°C 67% 1.0 mph NNE1.6 kmh NNE 3.6 mph5.8 kmh 24.83 in840.8 mb 0.00 in0.0 mm 0.00 in0.0 mm 0.00 in0.0 mm
12:36 AM 45.0°F7.2°C 34.3°F1.3°C 66% Calm Calm 2.7 mph4.3 kmh 24.83 in840.8 mb 0.00 in0.0 mm 0.00 in0.0 mm 0.00 in0.0 mm
12:31 AM 45.3°F7.4°C 33.8°F1.0°C 64% Calm Calm -- 24.83 in840.8 mb 0.00 in0.0 mm 0.00 in0.0 mm 0.00 in0.0 mm
12:26 AM 45.7°F7.6°C 33.8°F1.0°C 63% 1.0 mph NNE1.6 kmh NNE 3.6 mph5.8 kmh 24.83 in840.8 mb 0.00 in0.0 mm 0.00 in0.0 mm 0.00 in0.0 mm
12:21 AM 46.2°F7.9°C 34.3°F1.3°C 63% 2.0 mph NNE3.2 kmh NNE 4.5 mph7.2 kmh 24.83 in840.8 mb 0.00 in0.0 mm 0.00 in0.0 mm 0.00 in0.0 mm
12:16 AM 46.8°F8.2°C 35.6°F2.0°C 65% 2.0 mph NNE3.2 kmh NNE 4.0 mph6.4 kmh 24.83 in840.8 mb 0.00 in0.0 mm 0.00 in0.0 mm 0.00 in0.0 mm
12:11 AM 46.4°F8.0°C 35.2°F1.8°C 65% 1.0 mph NNE1.6 kmh NNE 4.0 mph6.4 kmh 24.83 in840.8 mb 0.00 in0.0 mm 0.00 in0.0 mm 0.00 in0.0 mm
12:06 AM 46.0°F7.8°C 35.2°F1.8°C 66% 2.0 mph NNE3.2 kmh NNE 4.0 mph6.4 kmh 24.83 in840.8 mb 0.00 in0.0 mm 0.00 in0.0 mm 0.00 in0.0 mm
12:01 AM 46.0°F7.8°C 35.2°F1.8°C 66% 4.0 mph NNE6.4 kmh NNE 6.3 mph10.1 kmh 24.83 in840.8 mb 0.00 in0.0 mm 0.00 in0.0 mm 0.00 in0.0 mm